sensor_id;sensor_type;location;lat;lon;timestamp;pressure;altitude;pressure_sealevel;temperature;humidity
71565;BME280;59397;50.952;14.502;2023-10-19T00:04:24;960.55;;;6.71;79.67
71565;BME280;59397;50.952;14.502;2023-10-19T00:23:58;960.25;;;6.66;81.43
71565;BME280;59397;50.952;14.502;2023-10-19T00:43:33;959.93;;;6.56;82.98
71565;BME280;59397;50.952;14.502;2023-10-19T01:03:07;959.53;;;6.83;82.50
71565;BME280;59397;50.952;14.502;2023-10-19T01:22:44;959.30;;;6.90;82.72
71565;BME280;59397;50.952;14.502;2023-10-19T01:42:15;959.18;;;6.89;83.88
71565;BME280;59397;50.952;14.502;2023-10-19T02:01:47;958.85;;;6.85;85.08
71565;BME280;59397;50.952;14.502;2023-10-19T02:21:21;958.77;;;6.90;86.26
71565;BME280;59397;50.952;14.502;2023-10-19T02:40:56;958.45;;;6.94;86.38
71565;BME280;59397;50.952;14.502;2023-10-19T03:00:30;958.06;;;6.99;86.10
71565;BME280;59397;50.952;14.502;2023-10-19T03:20:06;957.62;;;7.00;87.31
71565;BME280;59397;50.952;14.502;2023-10-19T03:39:37;957.05;;;6.73;92.08
71565;BME280;59397;50.952;14.502;2023-10-19T03:59:09;956.77;;;6.05;100.00
71565;BME280;59397;50.952;14.502;2023-10-19T04:18:41;957.10;;;5.96;100.00
71565;BME280;59397;50.952;14.502;2023-10-19T04:38:15;956.95;;;5.63;100.00
71565;BME280;59397;50.952;14.502;2023-10-19T04:57:50;956.88;;;5.82;100.00
71565;BME280;59397;50.952;14.502;2023-10-19T05:17:24;956.74;;;5.65;100.00
71565;BME280;59397;50.952;14.502;2023-10-19T05:36:58;956.89;;;5.63;100.00
71565;BME280;59397;50.952;14.502;2023-10-19T05:56:34;956.63;;;5.70;100.00
71565;BME280;59397;50.952;14.502;2023-10-19T06:16:09;956.24;;;6.02;100.00
71565;BME280;59397;50.952;14.502;2023-10-19T06:35:43;956.36;;;5.83;100.00
71565;BME280;59397;50.952;14.502;2023-10-19T06:55:18;956.22;;;5.81;100.00
71565;BME280;59397;50.952;14.502;2023-10-19T07:14:50;956.50;;;5.78;100.00
71565;BME280;59397;50.952;14.502;2023-10-19T07:34:25;956.38;;;5.84;100.00
71565;BME280;59397;50.952;14.502;2023-10-19T07:54:00;956.40;;;6.05;100.00
71565;BME280;59397;50.952;14.502;2023-10-19T08:13:33;956.24;;;5.97;100.00
71565;BME280;59397;50.952;14.502;2023-10-19T08:33:07;956.04;;;5.94;100.00
71565;BME280;59397;50.952;14.502;2023-10-19T08:52:41;955.94;;;6.27;100.00
71565;BME280;59397;50.952;14.502;2023-10-19T09:12:15;955.73;;;6.37;100.00
71565;BME280;59397;50.952;14.502;2023-10-19T09:31:51;955.40;;;6.71;100.00
71565;BME280;59397;50.952;14.502;2023-10-19T09:51:23;955.31;;;7.19;100.00
71565;BME280;59397;50.952;14.502;2023-10-19T10:11:00;954.98;;;7.77;100.00
71565;BME280;59397;50.952;14.502;2023-10-19T10:30:33;954.74;;;7.52;100.00
71565;BME280;59397;50.952;14.502;2023-10-19T10:50:09;954.61;;;7.87;100.00
71565;BME280;59397;50.952;14.502;2023-10-19T11:09:45;954.55;;;7.67;100.00
71565;BME280;59397;50.952;14.502;2023-10-19T11:29:18;954.45;;;7.61;100.00
71565;BME280;59397;50.952;14.502;2023-10-19T11:48:54;954.19;;;8.57;100.00
71565;BME280;59397;50.952;14.502;2023-10-19T12:08:29;954.28;;;8.19;100.00
71565;BME280;59397;50.952;14.502;2023-10-19T12:28:04;954.26;;;8.29;100.00
71565;BME280;59397;50.952;14.502;2023-10-19T12:47:38;954.10;;;8.21;100.00
71565;BME280;59397;50.952;14.502;2023-10-19T13:07:13;953.89;;;7.96;100.00
71565;BME280;59397;50.952;14.502;2023-10-19T13:26:50;953.76;;;8.48;100.00
71565;BME280;59397;50.952;14.502;2023-10-19T13:46:25;953.55;;;8.45;100.00
71565;BME280;59397;50.952;14.502;2023-10-19T14:06:01;953.38;;;8.83;100.00
71565;BME280;59397;50.952;14.502;2023-10-19T14:25:36;953.33;;;8.95;100.00
71565;BME280;59397;50.952;14.502;2023-10-19T14:45:09;953.25;;;8.46;100.00
71565;BME280;59397;50.952;14.502;2023-10-19T15:04:45;953.38;;;8.41;100.00
71565;BME280;59397;50.952;14.502;2023-10-19T15:24:15;953.20;;;8.16;100.00
71565;BME280;59397;50.952;14.502;2023-10-19T15:43:48;953.24;;;8.02;100.00
71565;BME280;59397;50.952;14.502;2023-10-19T16:03:22;953.30;;;8.16;100.00
71565;BME280;59397;50.952;14.502;2023-10-19T16:22:56;953.08;;;8.19;100.00
71565;BME280;59397;50.952;14.502;2023-10-19T16:42:29;953.17;;;7.94;100.00
71565;BME280;59397;50.952;14.502;2023-10-19T17:02:03;953.10;;;8.42;100.00
71565;BME280;59397;50.952;14.502;2023-10-19T17:21:35;952.90;;;8.34;100.00
71565;BME280;59397;50.952;14.502;2023-10-19T17:41:09;952.61;;;8.09;100.00
71565;BME280;59397;50.952;14.502;2023-10-19T18:00:42;952.53;;;8.17;100.00
71565;BME280;59397;50.952;14.502;2023-10-19T18:20:17;952.62;;;8.13;100.00
71565;BME280;59397;50.952;14.502;2023-10-19T18:39:51;952.35;;;8.16;100.00
71565;BME280;59397;50.952;14.502;2023-10-19T18:59:22;952.31;;;8.27;100.00
71565;BME280;59397;50.952;14.502;2023-10-19T19:18:56;952.08;;;8.16;100.00
71565;BME280;59397;50.952;14.502;2023-10-19T19:38:31;952.03;;;8.27;100.00
71565;BME280;59397;50.952;14.502;2023-10-19T19:58:04;951.84;;;8.22;100.00
71565;BME280;59397;50.952;14.502;2023-10-19T20:17:39;951.50;;;8.40;100.00
71565;BME280;59397;50.952;14.502;2023-10-19T20:37:12;951.54;;;8.26;100.00
71565;BME280;59397;50.952;14.502;2023-10-19T20:56:47;951.41;;;8.27;100.00
71565;BME280;59397;50.952;14.502;2023-10-19T21:16:21;951.42;;;8.29;100.00
71565;BME280;59397;50.952;14.502;2023-10-19T21:35:55;951.35;;;8.31;100.00
71565;BME280;59397;50.952;14.502;2023-10-19T21:55:30;950.93;;;8.46;100.00
71565;BME280;59397;50.952;14.502;2023-10-19T22:15:06;950.80;;;8.27;100.00
71565;BME280;59397;50.952;14.502;2023-10-19T22:34:40;950.80;;;8.92;100.00
71565;BME280;59397;50.952;14.502;2023-10-19T22:54:14;950.68;;;8.58;100.00
71565;BME280;59397;50.952;14.502;2023-10-19T23:13:48;950.68;;;8.63;100.00
71565;BME280;59397;50.952;14.502;2023-10-19T23:33:22;950.59;;;8.84;100.00
71565;BME280;59397;50.952;14.502;2023-10-19T23:52:56;950.30;;;9.07;100.00
